createdAt,value
2023-05-08T00:01:30.040Z,97050.88
2023-05-08T00:03:57.277Z,97052.34
2023-05-08T00:06:24.635Z,97044.22
2023-05-08T00:08:52.357Z,97052.34
2023-05-08T00:11:19.245Z,97045.44
2023-05-08T00:13:46.158Z,97054.63
2023-05-08T00:16:13.289Z,97059.81
2023-05-08T00:18:40.333Z,97054.78
2023-05-08T00:21:07.433Z,97049.75
2023-05-08T00:23:34.507Z,97062.69
2023-05-08T00:26:01.535Z,97057.88
2023-05-08T00:28:28.395Z,97063.28
2023-05-08T00:30:55.227Z,97059.75
2023-05-08T00:33:22.131Z,97060.75
2023-05-08T00:35:49.021Z,97056.16
2023-05-08T00:38:15.845Z,97058.88
2023-05-08T00:40:43.416Z,97059.53
2023-05-08T00:43:10.304Z,97063.09
2023-05-08T00:45:40.028Z,97064.97
2023-05-08T00:48:07.596Z,97061.03
2023-05-08T00:50:35.282Z,97069.16
2023-05-08T00:53:04.253Z,97066.63
2023-05-08T00:55:32.875Z,97071.22
2023-05-08T00:58:00.196Z,97065.59
2023-05-08T01:00:27.367Z,97068.31
2023-05-08T01:02:54.351Z,97069.16
2023-05-08T01:05:21.503Z,97069.16
2023-05-08T01:07:48.639Z,97062.69
2023-05-08T01:10:16.346Z,97068.97
2023-05-08T01:13:29.122Z,97068.47
2023-05-08T01:16:09.741Z,97071.63
2023-05-08T01:18:47.093Z,97065.56
2023-05-08T01:21:43.572Z,97058.03
2023-05-08T01:24:42.232Z,97062.63
2023-05-08T01:28:05.622Z,97063.38
2023-05-08T01:31:00.337Z,97065.47
2023-05-08T01:33:35.782Z,97073.78
2023-05-08T01:36:34.226Z,97062.69
2023-05-08T01:39:21.370Z,97065.63
2023-05-08T01:42:14.190Z,97071.22
2023-05-08T01:45:07.434Z,97066.25
2023-05-08T01:47:38.376Z,97077.94
2023-05-08T01:50:15.344Z,97070.22
2023-05-08T01:52:58.274Z,97067.69
2023-05-08T01:55:32.012Z,97068.97
2023-05-08T01:57:59.743Z,97076.50
2023-05-08T02:00:28.499Z,97076.34
2023-05-08T02:02:58.070Z,97066.31
2023-05-08T02:05:27.546Z,97077.16
2023-05-08T02:07:55.457Z,97077.78
2023-05-08T02:10:25.668Z,97082.16
2023-05-08T02:12:53.722Z,97081.16
2023-05-08T02:15:22.418Z,97084.06
2023-05-08T02:17:50.743Z,97082.38
2023-05-08T02:20:20.148Z,97084.66
2023-05-08T02:22:50.568Z,97092.34
2023-05-08T02:25:18.246Z,97089.44
2023-05-08T02:27:49.660Z,97084.41
2023-05-08T02:30:18.455Z,97095.72
2023-05-08T02:32:47.978Z,97093.19
2023-05-08T02:35:19.902Z,97091.50
2023-05-08T02:37:53.924Z,97093.19
2023-05-08T02:40:22.847Z,97084.66
2023-05-08T02:42:50.369Z,97088.19
2023-05-08T02:45:17.404Z,97085.31
2023-05-08T02:48:11.067Z,97091.13
2023-05-08T02:51:21.074Z,97085.44
2023-05-08T02:53:56.505Z,97087.78
2023-05-08T02:56:49.903Z,97087.50
2023-05-08T02:59:30.289Z,97094.44
2023-05-08T03:02:08.465Z,97094.88
2023-05-08T03:04:43.330Z,97096.53
2023-05-08T03:07:11.125Z,97096.16
2023-05-08T03:09:49.004Z,97089.63
2023-05-08T03:12:22.283Z,97088.16
2023-05-08T03:15:07.713Z,97081.63
2023-05-08T03:17:39.049Z,97080.63
2023-05-08T03:20:10.347Z,97078.91
2023-05-08T03:22:38.726Z,97078.75
2023-05-08T03:25:09.112Z,97086.88
2023-05-08T03:27:38.292Z,97082.28
2023-05-08T03:30:06.416Z,97077.69
2023-05-08T03:32:37.105Z,97090.44
2023-05-08T03:35:05.577Z,97087.91
2023-05-08T03:37:32.711Z,97096.69
2023-05-08T03:39:59.902Z,97094.81
2023-05-08T03:42:27.380Z,97092.31
2023-05-08T03:44:54.420Z,97086.22
2023-05-08T03:47:24.148Z,97083.91
2023-05-08T03:49:51.482Z,97077.84
2023-05-08T03:52:18.617Z,97092.44
2023-05-08T03:54:45.628Z,97085.34
2023-05-08T03:57:13.126Z,97088.91
2023-05-08T04:00:02.536Z,97090.69
2023-05-08T04:02:57.646Z,97094.47
2023-05-08T04:05:37.576Z,97096.13
2023-05-08T04:08:40.750Z,97093.97
2023-05-08T04:11:37.471Z,97102.09
2023-05-08T04:14:08.317Z,97104.06
2023-05-08T04:16:44.572Z,97107.19
2023-05-08T04:19:23.612Z,97106.50
2023-05-08T04:21:51.470Z,97112.59
2023-05-08T04:24:20.946Z,97107.53
2023-05-08T04:26:48.844Z,97111.28
2023-05-08T04:29:17.753Z,97112.13
2023-05-08T04:31:45.711Z,97112.13
2023-05-08T04:34:13.126Z,97108.38
2023-05-08T04:36:40.241Z,97109.03
2023-05-08T04:39:07.933Z,97108.84
2023-05-08T04:41:35.488Z,97112.41
2023-05-08T04:44:05.395Z,97118.66
2023-05-08T04:46:32.735Z,97120.31
2023-05-08T04:48:59.685Z,97124.53
2023-05-08T04:51:29.359Z,97118.28
2023-05-08T04:53:56.232Z,97126.03
2023-05-08T04:56:23.158Z,97130.22
2023-05-08T04:58:51.035Z,97130.03
2023-05-08T05:01:18.358Z,97133.38
2023-05-08T05:03:45.677Z,97128.59
2023-05-08T05:06:13.269Z,97129.25
2023-05-08T05:08:40.142Z,97126.16
2023-05-08T05:11:07.267Z,97136.63
2023-05-08T05:13:34.100Z,97133.31
2023-05-08T05:16:01.125Z,97136.66
2023-05-08T05:18:28.425Z,97137.94
2023-05-08T05:20:59.002Z,97141.47
2023-05-08T05:23:26.158Z,97136.13
2023-05-08T05:25:53.243Z,97141.34
2023-05-08T05:28:20.262Z,97137.41
2023-05-08T05:30:48.388Z,97140.75
2023-05-08T05:33:15.331Z,97143.91
2023-05-08T05:35:42.186Z,97142.03
2023-05-08T05:38:09.060Z,97146.44
2023-05-08T05:40:35.898Z,97152.72
2023-05-08T05:43:02.807Z,97155.44
2023-05-08T05:45:31.853Z,97151.66
2023-05-08T05:48:00.488Z,97152.28
2023-05-08T05:50:28.178Z,97161.09
2023-05-08T05:52:56.601Z,97151.06
2023-05-08T05:55:23.543Z,97156.50
2023-05-08T05:57:51.287Z,97158.81
2023-05-08T06:00:19.005Z,97161.53
2023-05-08T06:02:50.148Z,97164.03
2023-05-08T06:05:19.615Z,97160.28
2023-05-08T06:07:46.578Z,97163.84
2023-05-08T06:10:13.523Z,97160.94
2023-05-08T06:12:40.576Z,97170.97
2023-05-08T06:15:09.348Z,97168.25
2023-05-08T06:17:36.503Z,97167.41
2023-05-08T06:20:03.987Z,97165.72
2023-05-08T06:22:30.853Z,97176.19
2023-05-08T06:24:57.680Z,97173.69
2023-05-08T06:27:25.157Z,97169.09
2023-05-08T06:29:53.306Z,97168.88
2023-05-08T06:32:21.115Z,97171.41
2023-05-08T06:34:48.585Z,97178.53
2023-05-08T06:37:15.521Z,97173.72
2023-05-08T06:39:42.409Z,97176.25
2023-05-08T06:42:09.430Z,97170.41
2023-05-08T06:44:40.626Z,97173.78
2023-05-08T06:47:08.253Z,97166.25
2023-05-08T06:49:38.255Z,97169.84
2023-05-08T06:52:05.147Z,97164.13
2023-05-08T06:54:31.972Z,97169.91
2023-05-08T06:56:58.800Z,97174.94
2023-05-08T06:59:25.708Z,97173.88
2023-05-08T07:01:52.790Z,97168.91
2023-05-08T07:04:19.605Z,97183.75
2023-05-08T07:06:46.546Z,97176.91
2023-05-08T07:09:13.471Z,97175.66
2023-05-08T07:11:40.319Z,97184.22
2023-05-08T07:14:07.132Z,97173.81
2023-05-08T07:16:34.490Z,97180.34
2023-05-08T07:19:01.366Z,97182.44
2023-05-08T07:21:29.362Z,97184.94
2023-05-08T07:23:56.200Z,97180.78
2023-05-08T07:26:23.119Z,97185.84
2023-05-08T07:28:50.817Z,97189.00
2023-05-08T07:31:17.697Z,97181.28
2023-05-08T07:33:44.622Z,97183.56
2023-05-08T07:36:11.933Z,97183.81
2023-05-08T07:38:38.804Z,97183.22
2023-05-08T07:41:05.934Z,97187.59
2023-05-08T07:43:32.994Z,97190.56
2023-05-08T07:46:00.502Z,97189.78
2023-05-08T07:48:27.353Z,97187.28
2023-05-08T07:50:54.168Z,97194.41
2023-05-08T07:53:21.041Z,97186.28
2023-05-08T07:55:47.871Z,97186.09
2023-05-08T07:58:14.673Z,97192.41
2023-05-08T08:00:41.474Z,97194.06
2023-05-08T08:03:08.271Z,97195.16
2023-05-08T08:05:35.284Z,97194.31
2023-05-08T08:08:02.176Z,97190.13
2023-05-08T08:10:29.220Z,97195.16
2023-05-08T08:12:56.183Z,97195.16
2023-05-08T08:15:23.020Z,97200.81
2023-05-08T08:17:49.900Z,97192.84
2023-05-08T08:20:16.920Z,97192.00
2023-05-08T08:22:43.728Z,97193.69
2023-05-08T08:25:11.154Z,97190.13
2023-05-08T08:27:38.134Z,97192.66
2023-05-08T08:30:16.241Z,97193.28
2023-05-08T08:32:44.797Z,97203.09
2023-05-08T08:35:12.027Z,97202.28
2023-05-08T08:37:39.488Z,97202.28
2023-05-08T08:40:07.478Z,97201.66
2023-05-08T08:42:34.479Z,97205.22
2023-05-08T08:45:01.613Z,97202.50
2023-05-08T08:47:30.157Z,97209.00
2023-05-08T08:50:03.096Z,97199.34
2023-05-08T08:52:54.326Z,97210.00
2023-05-08T08:55:23.341Z,97208.56
2023-05-08T08:58:21.315Z,97207.09
2023-05-08T09:00:49.757Z,97212.31
2023-05-08T09:03:17.217Z,97208.13
2023-05-08T09:05:45.386Z,97209.00
2023-05-08T09:08:12.799Z,97218.81
2023-05-08T09:10:39.704Z,97217.78
2023-05-08T09:13:06.744Z,97210.25
2023-05-08T09:15:34.083Z,97211.91
2023-05-08T09:18:04.313Z,97208.13
2023-05-08T09:20:31.449Z,97205.63
2023-05-08T09:23:01.516Z,97207.31
2023-05-08T09:25:45.814Z,97210.88
2023-05-08T09:28:30.713Z,97211.31
2023-05-08T09:30:59.696Z,97218.03
2023-05-08T09:33:29.247Z,97213.63
2023-05-08T09:35:57.332Z,97210.91
2023-05-08T09:38:41.780Z,97212.41
2023-05-08T09:41:15.255Z,97214.69
2023-05-08T09:44:00.756Z,97214.69
2023-05-08T09:46:27.762Z,97215.09
2023-05-08T09:48:59.623Z,97219.69
2023-05-08T09:51:29.439Z,97211.09
2023-05-08T09:53:59.086Z,97218.19
2023-05-08T09:56:38.839Z,97220.72
2023-05-08T09:59:22.924Z,97219.44
2023-05-08T10:01:49.937Z,97215.47
2023-05-08T10:04:16.776Z,97224.91
2023-05-08T10:06:43.886Z,97216.25
2023-05-08T10:09:14.969Z,97220.47
2023-05-08T10:11:54.513Z,97219.19
2023-05-08T10:14:23.122Z,97230.72
2023-05-08T10:16:53.755Z,97214.72
2023-05-08T10:19:23.566Z,97216.84
2023-05-08T10:21:53.591Z,97220.16
2023-05-08T10:24:30.886Z,97214.47
2023-05-08T10:27:17.824Z,97226.44
2023-05-08T10:29:56.349Z,97222.66
2023-05-08T10:32:24.471Z,97226.63
2023-05-08T10:34:59.457Z,97226.25
2023-05-08T10:37:30.137Z,97221.63
2023-05-08T10:39:58.699Z,97230.44
2023-05-08T10:42:26.363Z,97219.50
2023-05-08T10:44:54.517Z,97220.56
2023-05-08T10:48:11.260Z,97222.47
2023-05-08T10:51:01.571Z,97212.22
2023-05-08T10:53:51.334Z,97221.66
2023-05-08T10:56:18.157Z,97221.06
2023-05-08T10:58:44.937Z,97217.25
2023-05-08T11:01:13.047Z,97212.44
2023-05-08T11:03:46.296Z,97211.63
2023-05-08T11:06:14.133Z,97213.28
2023-05-08T11:08:51.117Z,97217.97
2023-05-08T11:11:26.775Z,97207.47
2023-05-08T11:14:14.943Z,97215.88
2023-05-08T11:16:53.952Z,97214.41
2023-05-08T11:19:23.081Z,97215.47
2023-05-08T11:22:16.207Z,97210.44
2023-05-08T11:24:49.106Z,97211.91
2023-05-08T11:27:16.728Z,97211.50
2023-05-08T11:29:44.903Z,97204.97
2023-05-08T11:32:11.981Z,97209.19
2023-05-08T11:34:41.880Z,97206.22
2023-05-08T11:37:19.055Z,97200.81
2023-05-08T11:39:46.884Z,97200.78
2023-05-08T11:42:26.699Z,97199.72
2023-05-08T11:45:13.874Z,97199.91
2023-05-08T11:47:45.369Z,97203.22
2023-05-08T11:50:13.763Z,97201.47
2023-05-08T11:52:43.198Z,97196.78
2023-05-08T11:55:12.031Z,97198.44
2023-05-08T11:57:38.878Z,97196.63
2023-05-08T12:00:11.564Z,97202.44
2023-05-08T12:02:41.862Z,97196.44
2023-05-08T12:05:09.859Z,97205.00
2023-05-08T12:07:44.736Z,97199.81
2023-05-08T12:10:12.311Z,97199.88
2023-05-08T12:12:41.186Z,97198.91
2023-05-08T12:15:12.180Z,97199.84
2023-05-08T12:17:39.155Z,97193.41
2023-05-08T12:20:18.276Z,97205.31
2023-05-08T12:22:53.075Z,97196.16
2023-05-08T12:25:20.451Z,97192.81
2023-05-08T12:27:47.563Z,97198.59
2023-05-08T12:30:16.502Z,97198.03
2023-05-08T12:32:44.329Z,97197.09
2023-05-08T12:35:13.169Z,97196.38
2023-05-08T12:37:40.558Z,97194.41
2023-05-08T12:40:24.602Z,97188.94
2023-05-08T12:42:51.740Z,97185.56
2023-05-08T12:45:28.128Z,97181.66
2023-05-08T12:48:03.603Z,97192.88
2023-05-08T12:50:41.984Z,97186.59
2023-05-08T12:53:14.646Z,97197.84
2023-05-08T12:55:55.081Z,97193.19
2023-05-08T12:58:33.952Z,97188.06
2023-05-08T13:01:13.223Z,97191.41
2023-05-08T13:03:41.313Z,97179.97
2023-05-08T13:06:21.126Z,97185.56
2023-05-08T13:08:57.612Z,97186.88
2023-05-08T13:11:32.963Z,97189.09
2023-05-08T13:14:00.262Z,97195.28
2023-05-08T13:16:27.284Z,97188.72
2023-05-08T13:18:54.141Z,97200.22
2023-05-08T13:21:20.997Z,97188.63
2023-05-08T13:23:47.814Z,97191.91
2023-05-08T13:26:14.597Z,97183.19
2023-05-08T13:28:41.391Z,97182.44
2023-05-08T13:31:08.166Z,97183.00
2023-05-08T13:33:35.221Z,97180.78
2023-05-08T13:36:02.173Z,97169.56
2023-05-08T13:38:28.981Z,97167.38
2023-05-08T13:40:56.051Z,97171.66
2023-05-08T13:43:22.870Z,97170.06
2023-05-08T13:45:49.690Z,97169.28
2023-05-08T13:48:16.512Z,97168.75
2023-05-08T13:50:43.308Z,97159.56
2023-05-08T13:53:10.112Z,97163.19
2023-05-08T13:55:37.449Z,97157.56
2023-05-08T13:58:04.260Z,97158.50
2023-05-08T14:00:31.094Z,97161.03
2023-05-08T14:02:57.996Z,97166.34
2023-05-08T14:05:24.858Z,97165.13
2023-05-08T14:07:51.639Z,97159.47
2023-05-08T14:10:18.493Z,97164.34
2023-05-08T14:12:46.481Z,97166.69
2023-05-08T14:15:13.542Z,97161.88
2023-05-08T14:17:41.798Z,97156.25
2023-05-08T14:20:11.586Z,97160.72
2023-05-08T14:22:38.964Z,97154.00
2023-05-08T14:25:06.892Z,97150.69
2023-05-08T14:27:33.717Z,97160.16
2023-05-08T14:30:00.506Z,97157.84
2023-05-08T14:32:27.410Z,97166.72
2023-05-08T14:34:54.196Z,97162.75
2023-05-08T14:37:20.993Z,97164.50
2023-05-08T14:39:47.842Z,97162.63
2023-05-08T14:42:22.987Z,97163.13
2023-05-08T14:44:51.240Z,97156.03
2023-05-08T14:47:18.168Z,97160.22
2023-05-08T14:49:44.988Z,97154.78
2023-05-08T14:52:11.766Z,97157.34
2023-05-08T14:54:38.707Z,97150.88
2023-05-08T14:57:06.191Z,97163.50
2023-05-08T14:59:33.043Z,97160.81
2023-05-08T15:01:59.919Z,97157.91
2023-05-08T15:04:26.899Z,97158.75
2023-05-08T15:06:53.748Z,97150.38
2023-05-08T15:09:20.524Z,97152.94
2023-05-08T15:11:47.314Z,97152.75
2023-05-08T15:14:14.135Z,97156.72
2023-05-08T15:16:40.964Z,97157.16
2023-05-08T15:19:09.386Z,97154.84
2023-05-08T15:21:36.498Z,97160.53
2023-05-08T15:24:03.399Z,97158.22
2023-05-08T15:26:30.225Z,97165.78
2023-05-08T15:28:57.041Z,97165.13
2023-05-08T15:31:23.855Z,97165.34
2023-05-08T15:33:50.880Z,97167.25
2023-05-08T15:36:17.720Z,97164.94
2023-05-08T15:38:44.580Z,97167.66
2023-05-08T15:41:14.564Z,97169.56
2023-05-08T15:46:11.232Z,97165.16
2023-05-08T15:48:38.202Z,97168.72
2023-05-08T15:51:05.059Z,97174.19
2023-05-08T15:53:34.075Z,97174.19
2023-05-08T15:56:00.977Z,97174.19
2023-05-08T15:58:27.787Z,97177.72
2023-05-08T16:00:54.882Z,97175.66
2023-05-08T16:03:21.992Z,97176.03
2023-05-08T16:05:49.442Z,97176.88
2023-05-08T16:08:16.278Z,97164.97
2023-05-08T16:10:43.136Z,97173.56
2023-05-08T16:13:09.985Z,97162.19
2023-05-08T16:15:36.860Z,97166.41
2023-05-08T16:18:03.995Z,97169.53
2023-05-08T16:20:32.099Z,97181.88
2023-05-08T16:23:00.464Z,97174.34
2023-05-08T16:25:27.321Z,97172.22
2023-05-08T16:27:54.246Z,97176.41
2023-05-08T16:30:21.083Z,97173.25
2023-05-08T16:32:48.064Z,97178.50
2023-05-08T16:35:15.450Z,97176.59
2023-05-08T16:37:42.970Z,97178.91
2023-05-08T16:40:11.346Z,97173.44
2023-05-08T16:42:38.501Z,97174.06
2023-05-08T16:45:06.387Z,97166.09
2023-05-08T16:47:34.859Z,97163.13
2023-05-08T16:50:01.895Z,97167.34
2023-05-08T16:52:29.040Z,97169.00
2023-05-08T16:54:55.944Z,97172.78
2023-05-08T16:57:22.788Z,97174.47
2023-05-08T16:59:49.643Z,97181.38
2023-05-08T17:02:18.682Z,97177.59
2023-05-08T17:04:47.067Z,97174.25
2023-05-08T17:07:15.005Z,97175.94
2023-05-08T17:09:42.361Z,97167.97
2023-05-08T17:12:09.760Z,97174.25
2023-05-08T17:14:39.117Z,97168.34
2023-05-08T17:17:06.345Z,97165.84
2023-05-08T17:19:33.269Z,97179.81
2023-05-08T17:22:00.233Z,97174.69
2023-05-08T17:24:27.460Z,97170.38
2023-05-08T17:26:54.295Z,97179.78
2023-05-08T17:29:21.140Z,97176.06
2023-05-08T17:31:48.104Z,97168.19
2023-05-08T17:34:15.229Z,97168.31
2023-05-08T17:36:42.262Z,97170.06
2023-05-08T17:39:09.168Z,97179.00
2023-05-08T17:41:36.003Z,97179.47
2023-05-08T17:44:04.106Z,97176.81
2023-05-08T17:46:30.923Z,97186.38
2023-05-08T17:48:57.722Z,97189.59
2023-05-08T17:51:25.680Z,97196.66
2023-05-08T17:53:53.074Z,97202.59
2023-05-08T17:56:23.042Z,97202.47
2023-05-08T17:58:51.780Z,97195.28
2023-05-08T18:01:19.792Z,97192.56
2023-05-08T18:03:48.272Z,97195.19
2023-05-08T18:06:18.685Z,97199.25
2023-05-08T18:08:46.688Z,97189.63
2023-05-08T18:11:23.051Z,97196.19
2023-05-08T18:13:52.272Z,97193.53
2023-05-08T18:16:21.479Z,97201.09
2023-05-08T18:18:49.449Z,97192.72
2023-05-08T18:21:16.455Z,97192.53
2023-05-08T18:23:43.339Z,97191.72
2023-05-08T18:26:14.759Z,97191.94
2023-05-08T18:28:41.924Z,97198.06
2023-05-08T18:31:08.780Z,97190.94
2023-05-08T18:33:36.928Z,97189.06
2023-05-08T18:36:07.413Z,97189.28
2023-05-08T18:38:34.961Z,97194.97
2023-05-08T18:41:06.043Z,97189.94
2023-05-08T18:43:33.197Z,97196.22
2023-05-08T18:46:00.671Z,97198.13
2023-05-08T18:48:27.669Z,97187.44
2023-05-08T18:50:58.229Z,97187.66
2023-05-08T18:53:25.183Z,97190.41
2023-05-08T18:55:52.874Z,97189.53
2023-05-08T18:58:19.849Z,97176.09
2023-05-08T19:00:46.790Z,97185.13
2023-05-08T19:03:14.029Z,97195.16
2023-05-08T19:05:41.842Z,97183.22
2023-05-08T19:08:08.696Z,97184.88
2023-05-08T19:10:35.503Z,97180.28
2023-05-08T19:13:02.375Z,97182.78
2023-05-08T19:15:29.300Z,97185.06
2023-05-08T19:17:56.227Z,97185.06
2023-05-08T19:20:23.135Z,97180.22
2023-05-08T19:22:50.013Z,97187.34
2023-05-08T19:25:16.895Z,97188.78
2023-05-08T19:27:43.715Z,97185.81
2023-05-08T19:30:11.153Z,97180.16
2023-05-08T19:32:38.040Z,97183.50
2023-05-08T19:35:06.485Z,97185.13
2023-05-08T19:37:33.266Z,97186.59
2023-05-08T19:40:00.190Z,97185.72
2023-05-08T19:42:27.014Z,97183.81
2023-05-08T19:44:53.786Z,97190.03
2023-05-08T19:47:20.690Z,97188.16
2023-05-08T19:49:47.508Z,97194.38
2023-05-08T19:52:14.315Z,97192.47
2023-05-08T19:54:41.234Z,97190.53
2023-05-08T19:57:08.040Z,97202.22
2023-05-08T19:59:34.870Z,97194.03
2023-05-08T20:02:02.024Z,97189.41
2023-05-08T20:04:29.164Z,97197.09
2023-05-08T20:06:56.055Z,97197.72
2023-05-08T20:09:23.873Z,97199.13
2023-05-08T20:11:50.709Z,97204.09
2023-05-08T20:14:17.506Z,97194.66
2023-05-08T20:16:44.456Z,97202.56
2023-05-08T20:19:11.393Z,97187.06
2023-05-08T20:21:38.207Z,97196.00
2023-05-08T20:24:05.705Z,97194.06
2023-05-08T20:26:32.724Z,97194.00
2023-05-08T20:29:00.979Z,97200.22
2023-05-08T20:31:29.415Z,97201.00
2023-05-08T20:33:56.827Z,97197.19
2023-05-08T20:36:23.614Z,97197.75
2023-05-08T20:38:51.144Z,97201.28
2023-05-08T20:41:17.914Z,97193.50
2023-05-08T20:43:45.214Z,97192.22
2023-05-08T20:46:12.041Z,97199.91
2023-05-08T20:48:38.860Z,97184.22
2023-05-08T20:51:05.819Z,97185.84
2023-05-08T20:53:32.721Z,97185.34
2023-05-08T20:56:01.607Z,97184.22
2023-05-08T20:58:28.435Z,97183.78
2023-05-08T21:00:55.303Z,97191.47
2023-05-08T21:03:22.413Z,97194.91
2023-05-08T21:05:49.294Z,97193.63
2023-05-08T21:08:16.163Z,97185.88
2023-05-08T21:10:42.961Z,97196.06
2023-05-08T21:13:09.850Z,97189.16
2023-05-08T21:15:36.738Z,97188.53
2023-05-08T21:18:03.694Z,97179.72
2023-05-08T21:20:33.756Z,97182.00
2023-05-08T21:23:00.567Z,97186.56
2023-05-08T21:25:27.372Z,97184.88
2023-05-08T21:27:55.381Z,97186.75
2023-05-08T21:30:22.425Z,97185.91
2023-05-08T21:32:49.295Z,97179.66
2023-05-08T21:35:16.462Z,97173.41
2023-05-08T21:37:43.476Z,97179.84
2023-05-08T21:40:10.566Z,97177.31
2023-05-08T21:42:38.660Z,97181.25
2023-05-08T21:45:06.219Z,97181.25
2023-05-08T21:47:33.066Z,97177.69
2023-05-08T21:49:59.894Z,97174.16
2023-05-08T21:52:26.786Z,97178.53
2023-05-08T21:54:53.724Z,97173.97
2023-05-08T21:57:20.510Z,97176.50
2023-05-08T21:59:49.055Z,97171.06
2023-05-08T22:02:16.434Z,97168.34
2023-05-08T22:04:43.293Z,97174.63
2023-05-08T22:07:10.099Z,97172.75
2023-05-08T22:09:36.990Z,97166.94
2023-05-08T22:12:04.002Z,97167.78
2023-05-08T22:14:30.827Z,97163.19
2023-05-08T22:16:57.646Z,97164.88
2023-05-08T22:19:24.479Z,97158.44
2023-05-08T22:21:51.416Z,97157.59
2023-05-08T22:24:19.056Z,97163.03
2023-05-08T22:26:46.032Z,97155.72
2023-05-08T22:29:12.890Z,97151.16
2023-05-08T22:31:39.712Z,97151.78
2023-05-08T22:34:06.647Z,97139.06
2023-05-08T22:36:33.445Z,97140.78
2023-05-08T22:39:00.973Z,97141.59
2023-05-08T22:41:30.427Z,97134.50
2023-05-08T22:43:57.394Z,97133.47
2023-05-08T22:46:24.608Z,97128.88
2023-05-08T22:48:54.344Z,97121.59
2023-05-08T22:51:21.166Z,97122.63
2023-05-08T22:53:48.045Z,97112.84
2023-05-08T22:56:14.854Z,97104.69
2023-05-08T22:58:41.627Z,97111.97
2023-05-08T23:01:08.537Z,97097.56
2023-05-08T23:03:35.807Z,97104.25
2023-05-08T23:06:02.735Z,97099.00
2023-05-08T23:08:29.518Z,97104.41
2023-05-08T23:10:56.309Z,97099.41
2023-05-08T23:13:23.164Z,97109.38
2023-05-08T23:15:49.955Z,97103.31
2023-05-08T23:18:16.758Z,97098.09
2023-05-08T23:20:43.531Z,97101.00
2023-05-08T23:23:10.616Z,97099.94
2023-05-08T23:25:37.633Z,97101.00
2023-05-08T23:28:04.462Z,97095.78
2023-05-08T23:30:31.231Z,97098.66
2023-05-08T23:32:58.094Z,97092.22
2023-05-08T23:35:25.021Z,97092.22
2023-05-08T23:37:51.844Z,97092.22
2023-05-08T23:40:18.617Z,97086.97
2023-05-08T23:42:45.397Z,97096.97
2023-05-08T23:45:12.558Z,97088.03
2023-05-08T23:47:39.595Z,97083.63
2023-05-08T23:50:07.014Z,97084.47
2023-05-08T23:52:33.790Z,97073.63
2023-05-08T23:55:00.655Z,97078.00
2023-05-08T23:57:27.457Z,97072.59
2023-05-08T23:59:54.314Z,97076.13
